Coppess Corner, Indiana
Current Conditions -  °F | °C
As of 12:54 AM on Friday 31 Oct 2014 (Local Time) from KFWA Reporting Station
Overcast Overcast  
Wind Chill: 40°   Ceiling: 4700
Heat Index: 43°   Visibility: 10mi
Dew Point: 37°   Wind: 5mph
Humidity: 80%   Direction: 210°SSW
Pressure: 30.04"   Gusts: NA
Location:  40.7031°N, 84.8406°W
Report Text: KFWA 310454Z 21004KT 10SM BKN047 OVC110 06/03 A3004 RMK AO2 SLP175 T00610028 401000061
Loading
Personal Weather Stations






























Interactive Weather Map
Tropical Storm Tracking
New forecast layout! Learn more

10-Day Weather Forecast

Advertisements
Track Severe Weather on mobile